Time;durP1;ratioP1;P1;durP2;ratioP2;P2;SDS_P1;SDS_P2;PMS_P1;PMS_P2;Temp;Humidity;BMP_temperature;BMP_pressure;BME280_temperature;BME280_humidity;BME280_pressure;Samples;Min_cycle;Max_cycle;Signal;HPM_P1;HPM_P2
2021/12/11 00:00:14;;;;;;;13.35;7.68;;;;;;;-15.28;73.99;101379.56;4963064;29;20199;-55
2021/12/11 00:03:40;;;;;;;11.60;7.35;;;;;;;-14.70;75.18;101445.34;4962440;29;20039;-55
2021/12/11 00:06:35;;;;;;;16.50;8.73;;;;;;;-14.60;75.04;101431.53;4905504;29;20056;-55
2021/12/11 00:09:25;;;;;;;15.25;7.93;;;;;;;-15.06;72.40;101337.19;4904442;29;20028;-55
2021/12/11 00:12:19;;;;;;;13.45;7.43;;;;;;;-14.70;74.29;101430.44;4901182;29;20045;-54
2021/12/11 00:15:11;;;;;;;13.45;7.43;;;;;;;-14.63;74.86;101421.31;4904349;29;20095;-55
2021/12/11 00:18:00;;;;;;;13.65;7.55;;;;;;;-14.60;72.64;101406.66;4903122;29;20045;-56
2021/12/11 00:20:59;;;;;;;11.02;6.93;;;;;;;-14.84;73.04;101424.84;4891647;29;20048;-55
2021/12/11 00:23:52;;;;;;;10.27;6.38;;;;;;;-15.49;72.97;101340.91;4903707;29;20107;-56
2021/12/11 00:26:44;;;;;;;15.27;7.95;;;;;;;-14.99;72.84;101443.06;4897128;29;20349;-56
2021/12/11 00:29:32;;;;;;;14.43;7.70;;;;;;;-15.72;74.51;101325.97;4902353;29;20033;-55
2021/12/11 00:32:23;;;;;;;12.52;7.57;;;;;;;-15.10;72.54;101432.00;4904613;29;20071;-56
2021/12/11 00:35:16;;;;;;;12.07;7.35;;;;;;;-14.91;72.91;101437.34;4902261;29;20013;-56
2021/12/11 00:38:07;;;;;;;13.38;7.47;;;;;;;-14.95;73.88;101421.22;4957307;29;20308;-56
2021/12/11 00:40:54;;;;;;;13.30;7.28;;;;;;;-14.72;71.97;101434.34;4962361;29;20047;-55
2021/12/11 00:43:42;;;;;;;13.63;6.68;;;;;;;-14.57;72.25;101422.66;4959873;29;20094;-56
2021/12/11 00:46:32;;;;;;;12.18;6.95;;;;;;;-14.71;71.61;101377.34;4957643;29;20050;-55
2021/12/11 00:49:21;;;;;;;12.63;7.93;;;;;;;-14.71;71.73;101441.09;4954224;29;20031;-55
2021/12/11 00:52:07;;;;;;;11.88;6.75;;;;;;;-15.07;74.34;101427.34;4962914;29;20027;-55
2021/12/11 00:54:53;;;;;;;13.68;6.85;;;;;;;-14.81;73.26;101434.25;4947827;28;20220;-56
2021/12/11 00:57:39;;;;;;;11.45;7.53;;;;;;;-14.88;73.33;101417.78;4956246;29;20053;-55
2021/12/11 01:00:25;;;;;;;11.82;7.43;;;;;;;-14.87;73.46;101422.03;4962097;29;20070;-55
2021/12/11 01:03:15;;;;;;;11.88;6.82;;;;;;;-14.87;71.79;101434.47;4962919;29;20102;-55
2021/12/11 01:06:09;;;;;;;10.23;5.85;;;;;;;-15.24;73.20;101405.63;4961783;29;20418;-56
2021/12/11 01:09:04;;;;;;;14.25;7.35;;;;;;;-14.89;72.11;101410.16;4962281;29;20278;-56
2021/12/11 01:12:04;;;;;;;10.80;7.07;;;;;;;-14.74;72.01;101435.81;4960945;29;20091;-55
2021/12/11 01:14:58;;;;;;;11.68;6.80;;;;;;;-15.41;73.17;101343.34;4962988;29;20031;-56
2021/12/11 01:21:32;;;;;;;12.05;6.85;;;;;;;-14.73;72.57;101418.56;4949134;28;20027;-55
2021/12/11 01:27:22;;;;;;;11.65;6.85;;;;;;;-14.85;72.60;101373.38;4954936;29;20028;-55
2021/12/11 01:30:12;;;;;;;11.98;7.00;;;;;;;-15.03;72.65;101336.63;4944826;29;20036;-55
2021/12/11 01:32:59;;;;;;;11.60;6.80;;;;;;;-14.64;72.63;101423.63;4958284;29;20031;-55
2021/12/11 01:35:46;;;;;;;12.38;6.30;;;;;;;-14.61;72.54;101432.25;4961831;29;20035;-55
2021/12/11 01:38:32;;;;;;;10.73;7.18;;;;;;;-14.91;72.88;101414.97;4961714;29;20027;-55
2021/12/11 01:41:21;;;;;;;13.20;7.57;;;;;;;-14.79;73.02;101421.28;4959761;28;20047;-55
2021/12/11 01:44:12;;;;;;;10.98;6.95;;;;;;;-15.08;71.39;101356.00;4959161;29;20047;-56
2021/12/11 01:47:10;;;;;;;10.10;6.50;;;;;;;-14.97;71.96;101358.03;4945169;29;20231;-55
2021/12/11 01:50:01;;;;;;;13.38;7.22;;;;;;;-15.37;72.54;101357.84;4960678;29;20035;-55
2021/12/11 01:53:08;;;;;;;13.18;6.80;;;;;;;-15.30;73.39;101434.78;4960120;29;20030;-56
2021/12/11 01:56:07;;;;;;;10.70;7.05;;;;;;;-14.85;73.05;101452.03;4945643;29;20031;-55
2021/12/11 01:59:29;;;;;;;12.73;7.78;;;;;;;-14.55;72.63;101453.53;4961200;29;20236;-55
2021/12/11 02:02:26;;;;;;;11.32;6.90;;;;;;;-15.59;73.19;101360.44;4937720;28;20106;-56
2021/12/11 02:05:19;;;;;;;15.45;7.65;;;;;;;-15.31;71.94;101359.38;4959439;29;20023;-57
2021/12/11 02:08:12;;;;;;;11.52;6.95;;;;;;;-15.19;72.18;101421.94;4960974;29;20047;-55
2021/12/11 02:11:03;;;;;;;11.18;7.13;;;;;;;-15.08;72.15;101457.00;4945053;29;20204;-54
2021/12/11 02:13:54;;;;;;;;;;;;;;;-15.33;72.73;101440.28;4958414;29;20043;-55
2021/12/11 02:16:46;;;;;;;14.63;7.10;;;;;;;-15.90;73.55;101358.72;4960538;29;20247;-55
2021/12/11 02:19:38;;;;;;;11.77;6.10;;;;;;;-15.64;73.09;101413.69;4961868;29;20285;-56
2021/12/11 02:22:32;;;;;;;13.82;7.32;;;;;;;-15.51;73.07;101443.22;4944009;29;20177;-55
2021/12/11 02:25:31;;;;;;;13.57;6.80;;;;;;;-15.60;73.74;101444.69;4971168;28;20044;-55
2021/12/11 02:28:39;;;;;;;11.55;6.82;;;;;;;-15.64;74.02;101450.94;4955711;29;20035;-56
2021/12/11 02:31:39;;;;;;;13.27;6.90;;;;;;;-16.03;73.79;101367.31;4947773;29;20176;-55
2021/12/11 02:34:40;;;;;;;14.70;6.93;;;;;;;-16.01;72.46;101369.94;4953199;29;20055;-55
2021/12/11 02:37:45;;;;;;;11.98;7.32;;;;;;;-16.03;73.42;101368.88;4952013;29;20336;-56
2021/12/11 02:40:54;;;;;;;14.05;7.15;;;;;;;-15.61;73.51;101458.72;4960812;29;20030;-56
2021/12/11 02:44:07;;;;;;;13.02;7.00;;;;;;;-15.67;73.06;101446.50;4960677;28;20126;-55
2021/12/11 02:47:21;;;;;;;13.63;6.82;;;;;;;-15.58;74.01;101459.03;4961049;28;20319;-56
2021/12/11 02:50:09;;;;;;;13.63;7.57;;;;;;;-15.30;73.86;101454.66;4948269;29;20039;-55
2021/12/11 02:53:00;;;;;;;13.38;7.10;;;;;;;-15.31;72.86;101450.41;4960110;29;20031;-55
2021/12/11 02:55:58;;;;;;;13.43;6.75;;;;;;;-15.38;72.51;101436.41;4960576;29;20224;-55
2021/12/11 02:58:48;;;;;;;13.25;7.32;;;;;;;-15.49;73.20;101441.78;4959290;29;20272;-56
2021/12/11 03:01:41;;;;;;;11.40;7.35;;;;;;;-16.05;73.23;101376.16;4958731;29;20027;-55
2021/12/11 03:04:36;;;;;;;13.18;6.82;;;;;;;-15.53;72.12;101480.31;4958322;29;20070;-55
2021/12/11 03:07:36;;;;;;;15.55;6.93;;;;;;;-15.64;73.15;101448.44;4959576;29;20027;-55
2021/12/11 03:10:24;;;;;;;10.80;6.95;;;;;;;-16.20;74.13;101369.47;4959342;29;20343;-56
2021/12/11 03:13:11;;;;;;;10.88;6.53;;;;;;;-15.85;73.24;101439.53;4959084;29;20099;-56
2021/12/11 03:15:58;;;;;;;11.90;6.40;;;;;;;-16.01;72.68;101442.75;4960688;29;20508;-56
2021/12/11 03:18:44;;;;;;;11.60;6.53;;;;;;;-15.88;73.31;101429.25;4959144;29;20028;-55
2021/12/11 03:21:30;;;;;;;9.88;6.68;;;;;;;-15.87;73.95;101443.44;4961326;29;20046;-56
2021/12/11 03:24:16;;;;;;;11.82;6.93;;;;;;;-15.92;72.93;101447.88;4956269;29;20031;-55
2021/12/11 03:27:03;;;;;;;9.52;4.90;;;;;;;-15.82;73.43;101444.81;4960395;29;20028;-56
2021/12/11 03:29:49;;;;;;;11.70;6.80;;;;;;;-15.78;73.40;101426.22;4959716;28;20320;-56
2021/12/11 03:32:35;;;;;;;10.85;6.70;;;;;;;-15.82;73.06;101438.28;4960338;29;20053;-56
2021/12/11 03:35:23;;;;;;;12.82;6.45;;;;;;;-15.76;72.64;101437.13;4948996;29;20217;-56
2021/12/11 03:38:10;;;;;;;14.35;7.57;;;;;;;-15.61;73.80;101446.28;4954467;29;20023;-56
2021/12/11 03:40:57;;;;;;;13.13;6.03;;;;;;;-15.71;74.03;101443.50;4958612;29;20055;-56
2021/12/11 03:43:43;;;;;;;11.45;6.50;;;;;;;-15.64;72.33;101443.47;4963412;28;20030;-57
2021/12/11 03:46:29;;;;;;;5.38;3.53;;;;;;;-15.88;72.68;101449.97;4962622;29;20039;-56
2021/12/11 03:49:18;;;;;;;11.63;5.95;;;;;;;-15.69;74.38;101437.09;4956448;29;20211;-55
2021/12/11 03:52:07;;;;;;;13.25;6.88;;;;;;;-15.49;73.30;101469.09;4948096;29;20023;-56
2021/12/11 03:54:54;;;;;;;11.30;6.57;;;;;;;-15.81;72.17;101447.47;4951234;29;20354;-55
2021/12/11 03:57:42;;;;;;;13.30;6.78;;;;;;;-15.45;72.87;101453.84;4959750;29;20038;-55
2021/12/11 04:00:37;;;;;;;11.40;6.50;;;;;;;-15.22;72.81;101443.06;4958380;29;20035;-56
2021/12/11 04:03:28;;;;;;;12.73;6.90;;;;;;;-15.43;70.96;101449.03;4953914;29;20027;-56
2021/12/11 04:06:15;;;;;;;11.82;6.93;;;;;;;-15.63;71.96;101451.09;4963892;29;20255;-56
2021/12/11 04:09:07;;;;;;;11.60;6.70;;;;;;;-16.12;73.00;101378.66;4961378;29;20042;-56
2021/12/11 04:11:54;;;;;;;10.05;6.78;;;;;;;-15.93;73.58;101450.19;4963477;29;20102;-56
2021/12/11 04:14:45;;;;;;;14.32;7.40;;;;;;;-16.20;73.12;101385.25;4963014;29;20039;-56
2021/12/11 04:17:31;;;;;;;11.48;6.95;;;;;;;-15.58;72.30;101440.78;4949068;29;20035;-56
2021/12/11 04:20:20;;;;;;;12.73;7.55;;;;;;;-15.59;72.48;101477.13;4962279;29;20077;-56
2021/12/11 04:23:11;;;;;;;15.85;7.45;;;;;;;-15.58;73.78;101450.72;4950313;28;20028;-56
2021/12/11 04:25:58;;;;;;;15.88;7.05;;;;;;;-15.72;72.84;101435.16;4958331;29;20027;-56
2021/12/11 04:28:48;;;;;;;13.25;7.28;;;;;;;-15.76;72.60;101457.00;4962248;29;20045;-56
2021/12/11 04:31:41;;;;;;;15.18;7.63;;;;;;;-15.96;73.37;101435.81;4959166;29;20035;-54
2021/12/11 04:34:29;;;;;;;13.07;7.85;;;;;;;-15.86;74.23;101435.25;4956628;29;20487;-55
2021/12/11 04:37:26;;;;;;;13.77;7.28;;;;;;;-15.92;73.20;101437.06;4962492;29;20062;-55
2021/12/11 04:40:21;;;;;;;13.23;6.97;;;;;;;-16.21;74.54;101414.84;4945862;28;20034;-57
2021/12/11 04:43:14;;;;;;;12.63;7.00;;;;;;;-15.91;72.93;101429.78;4947559;28;20445;-55
2021/12/11 04:46:10;;;;;;;13.05;6.82;;;;;;;-16.37;73.47;101370.06;4950367;29;20327;-57
2021/12/11 04:49:13;;;;;;;12.35;7.30;;;;;;;-16.45;72.93;101337.00;4944048;29;20098;-57
2021/12/11 04:52:15;;;;;;;13.52;7.13;;;;;;;-15.96;73.13;101428.38;4952676;29;20216;-59
2021/12/11 05:01:13;;;;;;;13.02;7.45;;;;;;;-15.72;72.87;101430.19;4959902;29;20058;-57
2021/12/11 05:04:06;;;;;;;14.15;7.72;;;;;;;-15.92;72.87;101425.53;4961318;28;20327;-57
2021/12/11 05:07:02;;;;;;;11.65;6.70;;;;;;;-15.60;72.91;101439.72;4956766;29;20034;-56
2021/12/11 05:10:11;;;;;;;9.80;6.30;;;;;;;-15.46;72.93;101433.09;4960138;29;20110;-56
2021/12/11 05:12:59;;;;;;;13.00;7.30;;;;;;;-15.31;72.42;101463.69;4958425;29;20074;-57
2021/12/11 05:15:48;;;;;;;13.43;6.80;;;;;;;-15.82;72.96;101365.41;4956287;29;20186;-56
2021/12/11 05:18:36;;;;;;;6.47;3.85;;;;;;;-16.22;72.55;101376.75;4960264;29;20065;-57
2021/12/11 05:21:22;;;;;;;12.40;6.63;;;;;;;-15.65;72.89;101444.19;4960215;28;20343;-55
2021/12/11 05:24:10;;;;;;;12.35;6.57;;;;;;;-16.07;72.78;101385.03;4961212;29;20234;-55
2021/12/11 05:26:56;;;;;;;13.40;7.13;;;;;;;-15.44;72.15;101448.16;4960445;29;20357;-56
2021/12/11 05:29:43;;;;;;;10.98;6.68;;;;;;;-15.49;72.51;101446.75;4961241;29;20050;-55
2021/12/11 05:32:29;;;;;;;17.63;7.47;;;;;;;-15.36;72.12;101449.00;4960140;29;20041;-58
2021/12/11 05:35:17;;;;;;;15.00;7.18;;;;;;;-15.69;73.43;101368.50;4957481;29;20061;-57
2021/12/11 05:38:05;;;;;;;10.05;6.97;;;;;;;-15.69;71.66;101357.69;4961165;29;20054;-57
2021/12/11 05:40:59;;;;;;;11.13;6.40;;;;;;;-15.38;72.30;101448.81;4962996;28;20235;-54
2021/12/11 05:43:46;;;;;;;14.02;7.18;;;;;;;-15.32;73.88;101446.13;4958816;29;20027;-56
2021/12/11 05:46:32;;;;;;;14.52;7.40;;;;;;;-15.28;71.44;101446.63;4962952;28;20030;-55
2021/12/11 05:49:20;;;;;;;13.45;7.53;;;;;;;-15.34;74.00;101468.31;4958112;29;20031;-56
2021/12/11 05:52:08;;;;;;;11.07;7.03;;;;;;;-15.34;71.75;101450.94;4958120;28;20023;-56
2021/12/11 05:54:54;;;;;;;12.43;6.93;;;;;;;-15.27;72.28;101450.00;4959764;29;20386;-57
2021/12/11 05:57:49;;;;;;;11.23;7.03;;;;;;;-15.46;72.79;101455.44;4960104;29;20046;-60
2021/12/11 06:00:42;;;;;;;13.13;7.07;;;;;;;-15.83;72.96;101374.47;4959762;29;20043;-58
2021/12/11 06:03:28;;;;;;;13.27;6.15;;;;;;;-15.71;73.23;101449.34;4959796;29;20031;-56
2021/12/11 06:06:14;;;;;;;12.35;6.82;;;;;;;-15.68;73.19;101441.38;4959070;28;20035;-57
2021/12/11 06:09:02;;;;;;;10.50;6.00;;;;;;;-15.89;73.10;101447.34;4957897;29;20039;-56
2021/12/11 06:11:51;;;;;;;12.52;6.93;;;;;;;-16.08;74.00;101365.91;4957672;29;20208;-57
2021/12/11 06:14:38;;;;;;;10.43;5.63;;;;;;;-15.80;74.49;101443.41;4958747;29;20057;-60
2021/12/11 06:17:27;;;;;;;8.45;5.18;;;;;;;-15.83;74.02;101450.47;4960764;29;20089;-56
2021/12/11 06:20:23;;;;;;;7.88;5.50;;;;;;;-16.06;74.76;101436.41;4942466;29;20349;-58
2021/12/11 06:23:08;;;;;;;11.30;7.43;;;;;;;-15.72;74.10;101451.66;4943632;29;20058;-58
2021/12/11 06:25:55;;;;;;;12.40;6.88;;;;;;;-15.46;73.97;101455.44;4948501;29;20031;-57
2021/12/11 06:28:41;;;;;;;10.43;6.47;;;;;;;-15.49;74.47;101452.63;4955484;29;20027;-57
2021/12/11 06:31:27;;;;;;;12.85;6.60;;;;;;;-15.52;72.15;101444.81;4952852;29;20039;-57
2021/12/11 06:34:14;;;;;;;11.63;7.40;;;;;;;-15.32;73.49;101446.13;4946423;29;20350;-56
2021/12/11 06:37:02;;;;;;;12.77;6.65;;;;;;;-15.64;73.57;101441.00;4953357;29;20035;-56
2021/12/11 06:39:51;;;;;;;8.77;5.00;;;;;;;-15.78;72.84;101411.31;4953439;29;20036;-56
2021/12/11 06:42:37;;;;;;;13.43;7.32;;;;;;;-15.39;73.64;101444.56;4948746;29;20059;-56
2021/12/11 06:45:25;;;;;;;11.25;7.43;;;;;;;-15.34;72.43;101427.72;4958252;29;20438;-56
2021/12/11 06:48:12;;;;;;;11.88;5.82;;;;;;;-15.55;72.58;101432.06;4975423;28;20055;-58
2021/12/11 06:51:00;;;;;;;13.32;7.28;;;;;;;-15.82;73.25;101368.81;4953157;29;20572;-56
2021/12/11 06:53:58;;;;;;;13.43;7.65;;;;;;;-15.17;73.35;101456.88;4946118;29;20023;-57
2021/12/11 06:56:45;;;;;;;13.95;7.50;;;;;;;-15.20;74.08;101452.44;4953862;29;20031;-56
2021/12/11 06:59:31;;;;;;;14.65;7.38;;;;;;;-15.17;72.18;101452.78;4953521;28;20346;-55
2021/12/11 07:02:19;;;;;;;12.95;7.40;;;;;;;-15.09;73.61;101405.53;4953670;29;20360;-56
2021/12/11 07:05:06;;;;;;;13.48;7.03;;;;;;;-14.86;72.75;101447.75;4948464;29;20039;-57
2021/12/11 07:07:52;;;;;;;12.52;7.63;;;;;;;-15.06;73.98;101450.59;4952392;29;20031;-58
2021/12/11 07:10:40;;;;;;;10.93;6.63;;;;;;;-15.28;72.59;101441.66;4958251;29;20074;-57
2021/12/11 07:13:28;;;;;;;16.55;8.10;;;;;;;-14.88;71.78;101437.66;4955349;29;20038;-57
2021/12/11 07:16:14;;;;;;;11.35;6.20;;;;;;;-15.25;72.72;101448.56;4955124;29;20030;-58
2021/12/11 07:19:00;;;;;;;13.15;8.15;;;;;;;-14.80;73.61;101446.84;4959636;29;20323;-58
2021/12/11 07:21:50;;;;;;;14.98;9.15;;;;;;;-14.51;72.81;101455.63;4959116;29;20031;-58
2021/12/11 07:24:46;;;;;;;13.57;8.23;;;;;;;-15.26;72.95;101367.34;4959162;29;20327;-57
2021/12/11 07:27:34;;;;;;;13.30;7.43;;;;;;;-14.70;72.54;101455.31;4961918;29;20027;-57
2021/12/11 07:30:23;;;;;;;12.25;7.05;;;;;;;-15.18;71.37;101366.53;4963046;28;20027;-57
2021/12/11 07:33:09;;;;;;;16.52;7.90;;;;;;;-14.62;72.42;101465.34;4957352;29;20043;-57
2021/12/11 07:35:55;;;;;;;14.13;7.75;;;;;;;-14.62;71.88;101462.84;4961458;29;20193;-58
2021/12/11 07:38:41;;;;;;;12.02;7.88;;;;;;;-14.54;72.94;101466.13;4961318;29;20035;-58
2021/12/11 07:41:27;;;;;;;13.13;8.20;;;;;;;-14.43;71.53;101445.78;4958593;29;20054;-58
2021/12/11 07:44:14;;;;;;;12.50;7.93;;;;;;;-14.30;71.53;101457.91;4958716;29;20026;-57
2021/12/11 07:47:00;;;;;;;15.65;8.52;;;;;;;-14.27;71.71;101464.81;4960564;28;20035;-57
2021/12/11 07:49:46;;;;;;;12.45;7.75;;;;;;;-14.09;70.60;101468.38;4957405;29;20031;-58
2021/12/11 07:52:32;;;;;;;13.90;8.02;;;;;;;-14.10;71.14;101462.50;4948584;29;20035;-58
2021/12/11 07:55:19;;;;;;;15.27;8.23;;;;;;;-14.14;71.79;101454.56;4962263;29;20533;-59
2021/12/11 07:58:07;;;;;;;14.48;8.50;;;;;;;-14.43;71.39;101373.66;4958385;29;20066;-57
2021/12/11 08:00:53;;;;;;;14.25;8.73;;;;;;;-13.89;70.75;101440.59;4957895;28;20039;-57
2021/12/11 08:03:39;;;;;;;17.13;9.02;;;;;;;-13.79;70.08;101445.81;4961912;29;20086;-57
2021/12/11 08:06:26;;;;;;;14.88;7.90;;;;;;;-13.75;70.93;101440.41;4962409;29;20076;-56
2021/12/11 08:09:16;;;;;;;14.93;9.25;;;;;;;-14.22;71.00;101359.22;4961049;29;20047;-56
2021/12/11 08:12:04;;;;;;;15.43;8.88;;;;;;;-13.63;70.89;101450.75;4960569;29;20070;-56
2021/12/11 08:14:50;;;;;;;16.15;8.88;;;;;;;-13.61;70.91;101455.91;4961156;29;20075;-57
2021/12/11 08:17:37;;;;;;;16.33;8.93;;;;;;;-13.70;71.00;101462.44;4958640;29;20042;-57
2021/12/11 08:20:25;;;;;;;15.07;9.27;;;;;;;-14.09;69.96;101382.16;4958316;29;20035;-56
2021/12/11 08:23:13;;;;;;;17.27;9.18;;;;;;;-13.70;70.54;101447.50;4956292;29;20039;-57
2021/12/11 08:26:00;;;;;;;13.95;9.38;;;;;;;-13.40;70.42;101447.25;4957841;29;20038;-57
2021/12/11 08:28:50;;;;;;;15.30;8.25;;;;;;;-13.68;71.62;101438.56;4959855;28;20081;-58
2021/12/11 08:31:38;;;;;;;16.90;8.85;;;;;;;-14.03;70.42;101399.31;4958590;29;20105;-56
2021/12/11 08:34:25;;;;;;;14.70;9.57;;;;;;;-13.36;69.92;101434.41;4958908;29;20030;-56
2021/12/11 08:37:15;;;;;;;14.35;8.75;;;;;;;-13.28;69.98;101445.09;4960536;29;20078;-57
2021/12/11 08:40:05;;;;;;;14.20;8.18;;;;;;;-12.97;69.84;101433.25;4959885;29;20030;-57
2021/12/11 08:42:52;;;;;;;14.73;8.80;;;;;;;-12.87;69.15;101419.38;4959400;29;20225;-58
2021/12/11 08:45:49;;;;;;;14.43;8.18;;;;;;;-13.48;68.95;101428.16;4960402;29;20027;-56
2021/12/11 08:48:42;;;;;;;12.13;7.90;;;;;;;-13.93;70.25;101372.16;4961830;29;20031;-56
2021/12/11 08:51:36;;;;;;;18.23;9.82;;;;;;;-13.06;70.23;101431.59;4953458;29;20051;-57
2021/12/11 08:54:25;;;;;;;16.20;8.70;;;;;;;-12.87;69.14;101419.38;4960226;29;20024;-56
2021/12/11 08:57:14;;;;;;;16.50;9.32;;;;;;;-13.17;68.61;101352.38;4946261;29;20440;-56
2021/12/11 09:00:17;;;;;;;18.40;9.73;;;;;;;-13.31;69.80;101397.44;4960637;29;20109;-57
2021/12/11 09:03:10;;;;;;;17.65;10.20;;;;;;;-13.14;69.69;101394.16;4959793;29;20039;-58
2021/12/11 09:06:01;;;;;;;19.42;11.00;;;;;;;-12.88;69.33;101414.22;4960756;29;20019;-57
2021/12/11 09:09:06;;;;;;;20.17;9.38;;;;;;;-12.67;68.95;101408.00;4958236;28;20046;-57
2021/12/11 09:12:13;;;;;;;16.73;8.98;;;;;;;-13.11;68.96;101405.34;4960096;29;20027;-57
2021/12/11 09:15:13;;;;;;;10.65;7.50;;;;;;;-13.32;69.86;101430.56;4960769;29;20030;-56
2021/12/11 09:18:09;;;;;;;17.20;9.82;;;;;;;-13.29;69.74;101381.06;4952117;29;20086;-56
2021/12/11 09:21:04;;;;;;;15.48;9.27;;;;;;;-13.78;70.10;101310.63;4959861;29;20095;-58
2021/12/11 09:24:02;;;;;;;17.50;9.90;;;;;;;-13.84;70.47;101324.06;4959245;29;20027;-57
2021/12/11 09:27:14;;;;;;;15.23;9.35;;;;;;;-13.48;70.43;101396.66;4955638;29;20038;-57
2021/12/11 09:30:08;;;;;;;;;;;;;;;-13.16;71.24;101401.50;4948142;29;20046;-56
2021/12/11 09:32:59;;;;;;;14.00;8.05;;;;;;;-13.96;71.71;101326.19;4959291;29;19945;-57
2021/12/11 09:36:04;;;;;;;12.27;8.00;;;;;;;-13.62;71.87;101360.38;4957600;29;20027;-57
2021/12/11 09:38:54;;;;;;;16.85;9.55;;;;;;;-13.37;70.81;101378.69;4957582;29;20201;-56
2021/12/11 09:41:40;;;;;;;20.50;9.68;;;;;;;-13.20;71.54;101382.84;4956529;28;20055;-58
2021/12/11 09:44:51;;;;;;;17.23;9.27;;;;;;;-12.92;70.53;101383.13;4958885;29;20065;-58
2021/12/11 09:47:41;;;;;;;13.80;7.63;;;;;;;-13.04;71.35;101372.81;4956962;29;20035;-57
2021/12/11 09:50:34;;;;;;;15.02;9.43;;;;;;;-12.81;70.59;101383.31;4958824;29;20154;-57
2021/12/11 09:53:25;;;;;;;13.90;9.10;;;;;;;-13.08;70.88;101307.53;4957394;29;20132;-58
2021/12/11 09:56:39;;;;;;;15.35;8.35;;;;;;;-12.64;69.89;101360.03;4957454;29;20035;-57
2021/12/11 09:59:30;;;;;;;18.60;9.45;;;;;;;-12.40;70.12;101382.38;4959345;29;20102;-57
2021/12/11 10:02:21;;;;;;;13.95;8.10;;;;;;;-12.48;69.71;101393.25;4958871;29;20484;-56
2021/12/11 10:05:19;;;;;;;15.70;8.02;;;;;;;-12.48;69.77;101385.75;4958850;29;20046;-57
2021/12/11 10:11:20;;;;;;;15.35;8.73;;;;;;;-12.57;69.97;101379.84;4960051;29;20344;-56
2021/12/11 10:14:12;;;;;;;15.90;8.57;;;;;;;-12.76;70.17;101317.31;4958205;29;20042;-57
2021/12/11 10:17:01;;;;;;;18.67;9.30;;;;;;;-12.98;70.25;101296.84;4958160;29;20043;-56
2021/12/11 10:19:50;;;;;;;17.02;8.38;;;;;;;-13.11;70.48;101317.19;4959454;29;20045;-58
2021/12/11 10:22:38;;;;;;;15.43;9.40;;;;;;;-12.99;70.85;101287.66;4959584;29;20109;-57
2021/12/11 10:25:30;;;;;;;16.90;9.13;;;;;;;-12.80;70.25;101290.31;4950323;29;20074;-57
2021/12/11 10:28:19;;;;;;;18.98;8.88;;;;;;;-12.53;69.63;101364.47;4952084;29;20320;-62
2021/12/11 10:31:10;;;;;;;22.77;9.75;;;;;;;-12.43;70.25;101344.66;4960377;29;20023;-57
2021/12/11 10:33:58;;;;;;;16.42;9.65;;;;;;;-12.85;69.71;101318.16;4959633;29;20110;-56
2021/12/11 10:36:50;;;;;;;15.27;8.65;;;;;;;-12.96;69.67;101310.38;4944530;29;20039;-57
2021/12/11 10:39:41;;;;;;;14.13;8.75;;;;;;;-12.56;71.33;101382.50;4959068;29;20326;-58
2021/12/11 10:42:27;;;;;;;16.33;9.80;;;;;;;-12.53;70.80;101365.31;4944614;29;20063;-57
2021/12/11 10:45:15;;;;;;;14.80;9.25;;;;;;;-12.47;71.48;101347.56;4945662;29;20037;-59
2021/12/11 10:48:06;;;;;;;17.75;10.23;;;;;;;-12.95;70.61;101290.56;4956990;29;20038;-59
2021/12/11 10:50:58;;;;;;;16.70;9.70;;;;;;;-12.51;70.81;101351.41;4960096;29;20103;-59
2021/12/11 10:53:46;;;;;;;;;;;;;;;-12.26;70.58;101355.41;4957709;29;20082;-59
2021/12/11 10:56:32;;;;;;;14.73;8.93;;;;;;;-12.49;70.68;101349.06;4957448;29;19929;-58
2021/12/11 10:59:24;;;;;;;16.58;8.77;;;;;;;-13.08;69.98;101250.19;4951558;29;20042;-58
2021/12/11 11:02:12;;;;;;;;;;;;;;;-12.61;70.88;101345.34;4959716;29;20034;-59
2021/12/11 11:05:19;;;;;;;14.43;8.90;;;;;;;-12.42;71.08;101346.41;4957191;29;19910;-59
2021/12/11 11:08:07;;;;;;;15.10;9.52;;;;;;;-12.63;71.28;101347.69;4956764;29;20046;-58
2021/12/11 11:10:58;;;;;;;21.25;10.60;;;;;;;-12.78;71.65;101308.78;4958526;29;20042;-58
2021/12/11 11:13:45;;;;;;;17.40;11.05;;;;;;;-12.45;71.05;101341.13;4946749;29;20028;-59
2021/12/11 11:16:32;;;;;;;20.85;11.70;;;;;;;-12.56;71.31;101350.06;4958048;29;20090;-58
2021/12/11 11:19:23;;;;;;;22.80;11.25;;;;;;;-12.90;71.24;101268.59;4958800;29;20031;-57
2021/12/11 11:22:13;;;;;;;23.65;10.95;;;;;;;-12.36;70.88;101347.00;4959573;29;20035;-57
2021/12/11 11:25:11;;;;;;;23.20;12.52;;;;;;;-12.23;70.77;101353.19;4958479;29;20028;-57
2021/12/11 11:28:03;;;;;;;28.05;12.90;;;;;;;-12.42;70.32;101353.03;4948687;28;20048;-59
2021/12/11 11:30:54;;;;;;;24.05;12.77;;;;;;;-12.72;71.01;101315.25;4941663;29;20098;-58
2021/12/11 11:33:42;;;;;;;25.80;13.20;;;;;;;-12.95;71.51;101275.63;4959122;29;20032;-58
2021/12/11 11:36:30;;;;;;;27.15;14.50;;;;;;;-12.47;71.46;101341.72;4958331;29;20067;-57
2021/12/11 11:39:18;;;;;;;28.10;13.23;;;;;;;-12.26;70.97;101345.41;4955454;29;20320;-57
2021/12/11 11:42:13;;;;;;;23.60;12.82;;;;;;;-12.24;70.44;101341.44;4957212;29;20123;-57
2021/12/11 11:44:59;;;;;;;25.25;13.68;;;;;;;-12.35;71.38;101331.31;4959572;28;20042;-58
2021/12/11 11:47:45;;;;;;;18.77;12.07;;;;;;;-12.39;70.98;101323.38;4944889;29;20023;-57
2021/12/11 11:50:39;;;;;;;22.30;13.77;;;;;;;-12.78;71.70;101246.44;4949698;29;20050;-58
2021/12/11 11:53:26;;;;;;;21.00;11.07;;;;;;;-12.51;71.52;101321.47;4958266;29;20027;-58
2021/12/11 11:56:17;;;;;;;15.68;8.85;;;;;;;-12.77;72.10;101285.63;4948928;29;20027;-59
2021/12/11 11:59:05;;;;;;;18.08;10.77;;;;;;;-12.32;71.40;101319.13;4944647;29;20035;-59
2021/12/11 12:02:01;;;;;;;15.23;8.65;;;;;;;-12.49;71.03;101321.63;4953036;29;20031;-58
2021/12/11 12:04:52;;;;;;;18.58;9.80;;;;;;;-12.45;71.79;101312.78;4960200;28;20023;-57
2021/12/11 12:07:39;;;;;;;17.67;10.27;;;;;;;-12.51;71.78;101311.47;4953450;29;20111;-58
2021/12/11 12:10:26;;;;;;;16.08;9.65;;;;;;;-12.81;71.75;101226.19;4963616;28;20351;-57
2021/12/11 12:13:16;;;;;;;13.52;9.65;;;;;;;-12.27;71.83;101322.06;4960962;29;20038;-57
2021/12/11 12:16:08;;;;;;;12.10;7.63;;;;;;;-12.65;71.63;101251.00;4958119;29;20042;-58
2021/12/11 12:18:54;;;;;;;;;;;;;;;-12.21;71.65;101314.28;4962567;28;20039;-58
2021/12/11 12:21:43;;;;;;;15.13;10.02;;;;;;;-12.39;73.00;101294.31;4961939;29;19922;-57
2021/12/11 12:24:31;;;;;;;16.85;9.25;;;;;;;-12.51;72.06;101305.59;4960962;29;20043;-58
2021/12/11 12:27:23;;;;;;;13.88;8.80;;;;;;;-12.70;72.77;101245.56;4961255;29;20119;-58
2021/12/11 12:30:17;;;;;;;16.85;9.85;;;;;;;-12.41;72.40;101327.31;4960216;29;20043;-57
2021/12/11 12:33:03;;;;;;;14.50;8.80;;;;;;;-12.30;72.16;101325.88;4961874;28;20035;-58
2021/12/11 12:35:50;;;;;;;19.20;9.57;;;;;;;-12.45;72.36;101335.25;4958819;29;20035;-57
2021/12/11 12:38:37;;;;;;;16.73;8.95;;;;;;;-12.53;72.51;101327.03;4956056;29;20035;-58
2021/12/11 12:41:28;;;;;;;14.05;8.18;;;;;;;-12.70;72.32;101328.75;4958410;29;20111;-58
2021/12/11 12:44:19;;;;;;;15.95;9.00;;;;;;;-13.08;72.54;101257.69;4958116;29;20038;-59
2021/12/11 12:47:21;;;;;;;;;;;;;;;-12.69;72.58;101328.03;4957470;29;20424;-57
2021/12/11 12:50:13;;;;;;;16.90;8.32;;;;;;;-13.23;73.46;101245.47;4955530;29;20017;-60
2021/12/11 12:52:59;;;;;;;16.58;9.70;;;;;;;-12.50;72.74;101318.25;4960049;29;20355;-59
2021/12/11 12:56:02;;;;;;;16.83;9.20;;;;;;;-12.38;72.66;101337.63;4959760;29;20039;-59
2021/12/11 12:59:03;;;;;;;17.25;9.45;;;;;;;-12.41;72.24;101312.34;4958160;29;20201;-59
2021/12/11 13:01:57;;;;;;;24.45;9.23;;;;;;;-12.57;72.76;101310.88;4953697;29;20290;-58
2021/12/11 13:05:05;;;;;;;18.88;10.48;;;;;;;-12.54;72.94;101306.19;4960758;29;20104;-58
2021/12/11 13:07:59;;;;;;;18.85;11.48;;;;;;;-12.43;72.58;101327.19;4960421;29;20071;-57
2021/12/11 13:10:50;;;;;;;18.55;9.68;;;;;;;-12.90;72.97;101246.13;4944320;29;20039;-59
2021/12/11 13:13:37;;;;;;;18.40;10.25;;;;;;;-12.42;72.97;101331.44;4946892;29;20039;-58